Time;durP1;ratioP1;P1;durP2;ratioP2;P2;SDS_P1;SDS_P2;PMS_P1;PMS_P2;Temp;Humidity;BMP_temperature;BMP_pressure;BME280_temperature;BME280_humidity;BME280_pressure;Samples;Min_cycle;Max_cycle;Signal;HPM_P1;HPM_P2
2022/11/05 00:09:28;;;;;;;6.77;1.80;;;;;;;15.34;69.46;102428.47;4992163;28;20101;-47
2022/11/05 00:17:20;;;;;;;5.75;2.08;;;;;;;14.87;73.34;102421.91;4976232;28;20099;-44
2022/11/05 00:19:47;;;;;;;5.38;1.67;;;;;;;14.79;73.64;102411.28;4972200;28;20027;-45
2022/11/05 00:25:16;;;;;;;5.75;1.50;;;;;;;14.65;73.93;102410.34;4974382;28;21277;-44
2022/11/05 00:27:44;;;;;;;6.10;1.65;;;;;;;14.48;74.53;102407.06;4975641;28;20030;-47
2022/11/05 00:30:12;;;;;;;6.63;1.77;;;;;;;14.47;74.89;102415.38;4974589;28;20031;-43
2022/11/05 00:32:38;;;;;;;3.90;1.30;;;;;;;14.29;75.33;102414.97;4973694;28;20474;-47
2022/11/05 00:35:06;;;;;;;6.43;1.70;;;;;;;14.45;75.01;102418.22;4971497;28;20110;-47
2022/11/05 00:37:33;;;;;;;3.80;1.58;;;;;;;14.44;75.04;102421.97;4978381;28;20026;-47
2022/11/05 00:39:59;;;;;;;4.38;1.70;;;;;;;14.47;75.07;102412.66;4995515;28;20057;-46
2022/11/05 00:45:10;;;;;;;7.25;2.20;;;;;;;14.65;74.46;102417.59;4971631;28;20115;-47
2022/11/05 00:50:23;;;;;;;4.68;1.60;;;;;;;14.24;75.82;102431.69;4971261;28;20034;-48
2022/11/05 00:52:54;;;;;;;5.18;1.60;;;;;;;14.56;74.70;102429.56;4975866;28;20057;-51
2022/11/05 00:55:39;;;;;;;6.53;1.58;;;;;;;14.55;74.73;102422.47;4970420;28;20088;-47
2022/11/05 00:58:11;;;;;;;3.35;1.60;;;;;;;14.45;74.50;102412.84;4974999;28;20591;-50
2022/11/05 01:00:40;;;;;;;3.45;1.30;;;;;;;14.45;74.66;102418.22;4970989;28;20041;-50
2022/11/05 01:03:09;;;;;;;3.70;1.42;;;;;;;14.28;75.27;102411.44;4971657;28;20114;-48
2022/11/05 01:05:40;;;;;;;3.08;1.50;;;;;;;14.30;75.63;102408.53;4975456;28;20027;-47
2022/11/05 01:08:08;;;;;;;3.53;1.40;;;;;;;14.18;75.43;102410.91;4975128;28;20018;-47
2022/11/05 01:10:40;;;;;;;5.57;1.73;;;;;;;14.38;75.33;102411.94;4974263;28;20038;-46
2022/11/05 01:13:06;;;;;;;4.13;1.52;;;;;;;14.33;75.24;102409.00;4971971;28;20062;-51
2022/11/05 01:15:33;;;;;;;5.70;1.30;;;;;;;14.26;75.20;102421.53;4971567;28;20031;-48
2022/11/05 01:17:59;;;;;;;5.75;1.67;;;;;;;14.09;76.44;102426.34;4975266;28;20034;-48
2022/11/05 01:20:26;;;;;;;5.97;1.90;;;;;;;13.99;76.55;102418.59;4974869;28;20037;-46
2022/11/05 01:22:52;;;;;;;3.42;1.52;;;;;;;14.12;76.27;102419.75;4974851;28;20038;-47
2022/11/05 01:25:18;;;;;;;6.20;1.67;;;;;;;13.93;77.22;102422.03;4975611;28;20054;-50
2022/11/05 01:27:45;;;;;;;4.25;1.35;;;;;;;14.05;76.41;102422.38;4975426;28;20034;-51
2022/11/05 01:30:12;;;;;;;5.35;1.77;;;;;;;14.20;75.79;102433.09;4971061;28;20038;-49
2022/11/05 01:32:38;;;;;;;3.78;1.58;;;;;;;14.16;75.75;102427.28;4974509;28;20089;-48
2022/11/05 01:35:06;;;;;;;4.03;1.27;;;;;;;14.22;75.36;102431.06;4974014;28;20097;-48
2022/11/05 01:37:35;;;;;;;4.53;1.17;;;;;;;14.24;74.97;102431.69;4970279;28;20042;-46
2022/11/05 01:40:01;;;;;;;3.53;1.17;;;;;;;13.83;76.75;102424.22;4973028;28;20050;-46
2022/11/05 01:42:30;;;;;;;6.72;1.25;;;;;;;13.69;77.75;102427.75;4969736;28;20415;-47
2022/11/05 01:45:18;;;;;;;2.28;1.25;;;;;;;13.72;77.58;102430.06;4973204;28;20031;-46
2022/11/05 01:48:00;;;;;;;3.90;1.30;;;;;;;13.53;78.98;102434.16;4960471;28;20512;-47
2022/11/05 01:50:41;;;;;;;5.90;1.70;;;;;;;13.35;79.49;102431.03;4971424;28;20045;-47
2022/11/05 01:53:32;;;;;;;2.67;1.70;;;;;;;13.36;79.49;102422.75;4974345;28;20098;-50
2022/11/05 01:56:10;;;;;;;5.30;1.60;;;;;;;13.25;80.65;102425.91;4970462;28;20043;-47
2022/11/05 01:58:48;;;;;;;5.57;2.10;;;;;;;13.17;80.78;102423.28;4972776;28;20085;-48
2022/11/05 02:01:15;;;;;;;3.80;1.75;;;;;;;13.23;80.98;102427.13;4973481;28;20125;-50
2022/11/05 02:03:43;;;;;;;6.03;2.25;;;;;;;13.32;80.52;102426.81;4974806;28;20030;-49
2022/11/05 02:06:10;;;;;;;3.10;1.92;;;;;;;13.36;80.14;102428.13;4975078;28;20118;-46
2022/11/05 02:09:01;;;;;;;3.10;1.80;;;;;;;13.32;80.77;102426.00;4989500;28;20037;-47
2022/11/05 02:11:27;;;;;;;4.13;2.60;;;;;;;13.24;81.49;102426.94;4974415;28;20053;-46
2022/11/05 02:13:54;;;;;;;3.05;2.15;;;;;;;13.33;80.68;102423.16;4974481;28;20035;-48
2022/11/05 02:16:50;;;;;;;5.65;2.92;;;;;;;13.14;81.45;102434.41;4974514;28;20050;-47
2022/11/05 02:19:50;;;;;;;6.13;3.22;;;;;;;13.06;82.35;102438.00;4971296;28;20035;-46
2022/11/05 02:22:36;;;;;;;8.40;3.53;;;;;;;13.01;82.07;102431.53;4974386;28;20039;-47
2022/11/05 02:25:38;;;;;;;4.07;2.55;;;;;;;13.25;81.52;102431.28;4974305;28;20023;-51
2022/11/05 02:28:29;;;;;;;6.40;2.70;;;;;;;13.18;81.35;102431.16;4973336;28;20085;-47
2022/11/05 02:31:21;;;;;;;3.85;2.00;;;;;;;12.95;82.39;102439.28;4958385;28;20030;-47
2022/11/05 02:34:14;;;;;;;3.08;1.92;;;;;;;13.05;82.22;102451.66;4973989;28;20026;-48
2022/11/05 02:37:03;;;;;;;6.88;2.53;;;;;;;12.91;82.44;102448.72;4972811;28;20086;-46
2022/11/05 02:39:55;;;;;;;2.92;2.00;;;;;;;13.11;81.74;102467.88;4973820;28;20093;-45
2022/11/05 02:42:45;;;;;;;5.15;2.63;;;;;;;12.95;82.23;102462.66;4969390;28;20066;-49
2022/11/05 02:45:32;;;;;;;5.45;2.58;;;;;;;13.11;81.93;102457.13;4964635;28;20035;-49
2022/11/05 02:48:25;;;;;;;4.57;2.88;;;;;;;12.75;83.58;102469.53;4973825;28;20031;-46
2022/11/05 02:51:04;;;;;;;5.20;2.53;;;;;;;12.88;83.50;102461.69;4954383;28;20035;-45
2022/11/05 02:53:30;;;;;;;6.68;3.00;;;;;;;12.78;83.58;102461.13;4954460;29;20121;-48
2022/11/05 02:56:40;;;;;;;5.50;2.72;;;;;;;12.68;83.94;102470.25;4954494;29;20077;-49
2022/11/05 02:59:06;;;;;;;7.97;2.78;;;;;;;12.90;83.53;102465.88;4966636;28;20383;-49
2022/11/05 03:01:35;;;;;;;5.10;2.58;;;;;;;12.97;83.32;102463.28;4970549;28;20357;-46
2022/11/05 03:04:06;;;;;;;8.43;2.63;;;;;;;12.91;83.14;102466.72;4971785;28;20092;-47
2022/11/05 03:06:59;;;;;;;4.78;1.88;;;;;;;12.88;83.54;102462.56;4972681;28;20026;-46
2022/11/05 03:09:28;;;;;;;3.63;2.30;;;;;;;12.90;84.01;102452.44;4972042;28;20373;-49
2022/11/05 03:12:09;;;;;;;3.50;2.13;;;;;;;13.02;83.31;102462.75;4965601;28;20038;-46
2022/11/05 03:14:41;;;;;;;5.38;2.25;;;;;;;13.12;83.36;102455.28;4970803;28;20535;-46
2022/11/05 03:17:32;;;;;;;5.10;2.35;;;;;;;13.06;84.11;102448.78;4970838;28;20084;-46
2022/11/05 03:20:10;;;;;;;3.85;1.73;;;;;;;13.10;83.65;102446.53;4972952;28;20034;-46
2022/11/05 03:22:42;;;;;;;4.72;2.17;;;;;;;13.10;83.53;102444.72;4967981;28;20117;-46
2022/11/05 03:25:16;;;;;;;4.68;2.92;;;;;;;13.16;83.64;102438.59;4972908;28;20098;-47
2022/11/05 03:27:46;;;;;;;4.75;2.30;;;;;;;13.22;83.37;102441.59;4972772;28;20022;-45
2022/11/05 03:30:15;;;;;;;5.18;2.30;;;;;;;13.12;83.71;102436.44;4972386;28;20130;-46
2022/11/05 03:32:50;;;;;;;5.55;2.53;;;;;;;12.74;85.34;102433.78;4972786;28;20034;-46
2022/11/05 03:35:24;;;;;;;3.90;2.50;;;;;;;12.94;84.64;102429.56;4971844;28;20041;-45
2022/11/05 03:37:57;;;;;;;4.32;2.47;;;;;;;12.98;84.55;102434.56;4973275;28;20049;-47
2022/11/05 03:40:25;;;;;;;5.72;2.35;;;;;;;12.92;84.81;102428.91;4976474;28;20800;-48
2022/11/05 03:42:56;;;;;;;9.18;2.70;;;;;;;13.02;84.92;102425.13;4975899;28;20081;-46
2022/11/05 03:45:53;;;;;;;5.90;2.35;;;;;;;12.86;85.51;102429.63;4971421;28;20408;-46
2022/11/05 03:48:23;;;;;;;8.35;2.67;;;;;;;13.00;85.12;102427.16;4975136;28;20065;-45
2022/11/05 03:50:53;;;;;;;5.00;2.22;;;;;;;13.01;84.79;102431.53;4975908;28;20088;-47
2022/11/05 03:53:29;;;;;;;4.95;2.95;;;;;;;13.02;85.20;102433.19;4958567;28;20130;-46
2022/11/05 03:56:08;;;;;;;7.18;3.10;;;;;;;12.97;85.03;102430.22;4976346;28;20037;-47
2022/11/05 03:58:35;;;;;;;6.20;3.38;;;;;;;12.76;86.41;102420.97;4976542;28;20038;-46
2022/11/05 04:01:03;;;;;;;7.90;3.17;;;;;;;12.82;86.10;102409.50;4976263;28;20035;-46
2022/11/05 04:03:35;;;;;;;5.75;2.60;;;;;;;12.76;86.48;102414.78;4976430;28;20042;-46
2022/11/05 04:14:16;;;;;;;5.95;4.18;;;;;;;12.59;87.89;102408.72;4972628;28;20069;-46
2022/11/05 04:25:07;;;;;;;4.23;2.67;;;;;;;12.55;87.67;102426.22;4938734;28;20516;-46
2022/11/05 04:27:34;;;;;;;6.07;2.80;;;;;;;12.66;87.61;102425.81;4975890;28;20029;-45
2022/11/05 04:30:19;;;;;;;5.75;2.47;;;;;;;12.73;87.13;102425.91;4974621;28;20057;-46
2022/11/05 04:33:02;;;;;;;3.53;2.33;;;;;;;12.40;88.66;102421.63;4975632;28;20494;-46
2022/11/05 04:35:33;;;;;;;6.50;2.92;;;;;;;12.54;88.22;102422.69;4975378;28;20027;-46
2022/11/05 04:38:00;;;;;;;6.20;3.85;;;;;;;12.37;89.61;102413.91;4975762;28;20057;-46
2022/11/05 04:40:27;;;;;;;8.80;4.28;;;;;;;12.38;89.06;102417.44;4973986;28;20023;-49
2022/11/05 04:42:54;;;;;;;7.93;4.07;;;;;;;12.40;89.41;102410.06;4975772;28;20114;-45
2022/11/05 04:45:22;;;;;;;6.55;4.18;;;;;;;12.40;90.04;102404.69;4971373;28;20027;-48
2022/11/05 04:47:49;;;;;;;8.18;4.65;;;;;;;12.34;90.09;102408.09;4975340;28;20114;-48
2022/11/05 04:50:15;;;;;;;9.55;4.55;;;;;;;12.12;91.73;102402.53;4972555;28;20086;-48
2022/11/05 04:52:41;;;;;;;8.40;5.35;;;;;;;12.22;91.27;102406.84;4974910;28;20489;-46
2022/11/05 04:55:08;;;;;;;8.95;5.72;;;;;;;12.28;91.24;102412.31;4960358;28;20031;-47
2022/11/05 04:57:35;;;;;;;12.35;6.63;;;;;;;12.21;92.06;102410.50;4970906;28;20054;-46
2022/11/05 05:00:04;;;;;;;11.90;7.28;;;;;;;12.11;92.23;102418.81;4974522;28;20035;-46
2022/11/05 05:02:31;;;;;;;12.80;5.95;;;;;;;11.95;93.53;102413.56;4971479;28;20089;-47
2022/11/05 05:04:57;;;;;;;12.15;6.40;;;;;;;12.01;94.00;102426.25;4973086;28;20022;-47
2022/11/05 05:07:23;;;;;;;14.38;7.15;;;;;;;12.02;93.97;102426.06;4975200;28;20431;-46
2022/11/05 05:09:49;;;;;;;11.75;6.88;;;;;;;12.19;94.03;102426.81;4974855;28;20049;-47
2022/11/05 05:12:15;;;;;;;11.73;6.45;;;;;;;12.22;93.54;102434.53;4974680;28;20037;-46
2022/11/05 05:14:42;;;;;;;9.18;5.97;;;;;;;12.32;93.00;102432.41;4974518;28;20077;-47
2022/11/05 05:17:08;;;;;;;10.55;6.25;;;;;;;12.42;92.09;102430.31;4975124;28;20026;-46
2022/11/05 05:21:37;;;;;;;14.73;6.57;;;;;;;12.35;92.31;102429.38;4974787;28;20027;-47
2022/11/05 05:22:20;;;;;;;6.75;4.60;;;;;;;12.54;91.20;102436.09;4974566;28;20192;-46
2022/11/05 05:24:46;;;;;;;9.05;4.60;;;;;;;12.37;91.92;102435.41;4973899;28;20181;-46
2022/11/05 05:27:12;;;;;;;7.68;4.03;;;;;;;12.55;91.29;102431.59;4983595;28;20038;-46
2022/11/05 05:29:39;;;;;;;8.45;4.30;;;;;;;12.58;90.64;102439.28;4974827;28;20085;-46
2022/11/05 05:32:06;;;;;;;5.53;3.47;;;;;;;12.68;90.25;102434.50;4975064;28;20023;-47
2022/11/05 05:34:32;;;;;;;5.38;3.03;;;;;;;12.68;89.81;102424.59;4974766;28;20039;-47
2022/11/05 05:36:58;;;;;;;6.25;2.97;;;;;;;12.55;90.09;102431.59;4974711;28;20061;-47
2022/11/05 05:39:26;;;;;;;6.35;3.17;;;;;;;12.64;89.68;102427.81;4970571;28;20049;-46
2022/11/05 05:41:52;;;;;;;5.47;2.55;;;;;;;12.65;89.64;102429.47;4962568;28;20549;-47
2022/11/05 05:44:18;;;;;;;6.45;3.72;;;;;;;12.73;89.06;102426.75;4971698;28;20060;-48
2022/11/05 05:46:44;;;;;;;4.75;3.00;;;;;;;12.72;88.90;102425.06;4973998;28;20427;-47
2022/11/05 05:49:11;;;;;;;8.25;4.05;;;;;;;12.62;89.86;102429.84;4971639;28;20029;-47
2022/11/05 05:51:37;;;;;;;6.47;3.95;;;;;;;12.65;89.61;102424.09;4973859;28;20070;-49
2022/11/05 05:54:03;;;;;;;5.18;3.67;;;;;;;12.67;89.55;102416.72;4974303;28;20058;-46
2022/11/05 05:56:30;;;;;;;7.88;3.90;;;;;;;12.66;89.33;102412.38;4974068;28;20666;-46
2022/11/05 05:58:56;;;;;;;5.45;3.50;;;;;;;12.40;90.51;102413.56;4956231;28;20050;-46
2022/11/05 06:01:22;;;;;;;6.22;3.45;;;;;;;12.56;90.27;102411.78;4969201;28;20172;-49
2022/11/05 06:03:49;;;;;;;6.70;3.45;;;;;;;12.58;89.81;102396.31;4974257;28;20078;-48
2022/11/05 06:06:20;;;;;;;6.20;4.03;;;;;;;12.51;90.07;102406.13;4974116;28;20031;-46
2022/11/05 06:08:47;;;;;;;11.05;4.70;;;;;;;12.63;89.63;102394.75;4973743;28;20062;-47
2022/11/05 06:11:13;;;;;;;5.82;4.30;;;;;;;12.59;89.36;102400.66;4973663;28;20034;-50
2022/11/05 06:13:40;;;;;;;6.43;3.90;;;;;;;12.67;89.46;102400.59;4973712;28;20031;-48
2022/11/05 06:16:08;;;;;;;6.10;3.78;;;;;;;12.70;89.05;102392.16;4973641;28;20027;-47
2022/11/05 06:18:35;;;;;;;6.97;3.33;;;;;;;12.75;88.67;102389.75;4973746;28;20472;-50
2022/11/05 06:21:03;;;;;;;4.55;3.00;;;;;;;12.54;89.64;102379.72;4973697;28;20035;-47
2022/11/05 06:23:34;;;;;;;6.97;3.88;;;;;;;12.58;89.56;102377.50;4973290;28;20043;-46
2022/11/05 06:26:02;;;;;;;5.90;2.83;;;;;;;12.46;90.02;102378.97;4973529;28;20114;-46
2022/11/05 06:28:29;;;;;;;3.10;2.17;;;;;;;12.33;91.21;102375.03;4973461;28;20030;-46
2022/11/05 06:30:56;;;;;;;2.95;2.03;;;;;;;12.38;91.64;102361.03;4972891;28;20471;-46
2022/11/05 06:33:23;;;;;;;5.72;2.17;;;;;;;12.48;90.80;102363.50;4973450;28;20031;-46
2022/11/05 06:35:49;;;;;;;4.68;1.95;;;;;;;12.46;90.95;102363.69;4973760;28;20084;-46
2022/11/05 06:38:15;;;;;;;4.57;2.60;;;;;;;12.52;90.65;102356.75;4973755;28;20031;-47
2022/11/05 06:40:42;;;;;;;3.53;2.20;;;;;;;12.51;90.51;102347.03;4972947;28;20037;-47
2022/11/05 06:43:08;;;;;;;3.65;2.85;;;;;;;12.53;90.69;102340.44;4973297;28;20120;-47
2022/11/05 06:45:34;;;;;;;4.25;3.15;;;;;;;12.54;90.50;102347.47;4973315;28;20034;-46
2022/11/05 06:48:00;;;;;;;5.00;3.13;;;;;;;12.46;91.40;102346.72;4974902;28;20099;-46
2022/11/05 06:50:27;;;;;;;3.75;2.83;;;;;;;12.43;91.79;102348.75;4973365;28;20042;-46
2022/11/05 06:53:02;;;;;;;2.92;2.60;;;;;;;12.45;91.48;102353.13;4973256;28;20046;-47
2022/11/05 06:55:30;;;;;;;3.42;2.53;;;;;;;12.48;91.46;102368.84;4973171;28;20026;-46
2022/11/05 06:57:57;;;;;;;4.53;2.65;;;;;;;12.51;91.54;102369.34;4973282;28;20030;-46
2022/11/05 07:00:23;;;;;;;4.40;3.22;;;;;;;12.54;91.50;102368.97;4957352;28;20089;-46
2022/11/05 07:02:50;;;;;;;4.10;2.30;;;;;;;12.40;91.49;102359.03;4973307;28;20034;-46
2022/11/05 07:05:16;;;;;;;3.55;2.72;;;;;;;12.42;91.75;102355.13;4973037;28;20375;-47
2022/11/05 07:07:43;;;;;;;3.97;2.67;;;;;;;12.51;91.20;102352.41;4973247;28;20039;-46
2022/11/05 07:10:16;;;;;;;5.20;2.67;;;;;;;12.40;91.54;102357.19;4971886;28;20550;-46
2022/11/05 07:12:42;;;;;;;6.03;3.42;;;;;;;12.47;91.28;102356.44;4972941;28;20039;-46
2022/11/05 07:15:10;;;;;;;6.80;4.07;;;;;;;12.30;91.69;102351.22;4973116;28;20039;-47
2022/11/05 07:17:37;;;;;;;7.60;3.88;;;;;;;12.28;91.70;102345.22;4973060;28;20081;-47
2022/11/05 07:20:07;;;;;;;6.20;3.97;;;;;;;12.33;91.71;102340.13;4972338;28;20051;-47
2022/11/05 07:22:34;;;;;;;7.70;3.92;;;;;;;12.34;91.64;102335.59;4972786;28;20451;-48
2022/11/05 07:25:01;;;;;;;5.20;3.33;;;;;;;12.46;91.55;102338.69;4972507;28;20034;-47
2022/11/05 07:27:27;;;;;;;6.05;3.78;;;;;;;12.47;91.63;102340.34;4972781;28;20443;-47
2022/11/05 07:29:53;;;;;;;5.80;3.33;;;;;;;12.53;91.07;102345.81;4972861;28;20479;-47
2022/11/05 07:32:19;;;;;;;6.45;3.72;;;;;;;12.39;91.81;102343.94;4972823;28;20038;-47
2022/11/05 07:34:46;;;;;;;7.70;4.68;;;;;;;12.61;91.41;102336.88;4971634;28;20487;-47
2022/11/05 07:37:12;;;;;;;6.57;4.18;;;;;;;12.60;90.97;102337.84;4972835;28;20034;-46
2022/11/05 07:39:38;;;;;;;6.95;5.00;;;;;;;12.70;90.45;102343.81;4972463;28;20058;-48
2022/11/05 07:42:04;;;;;;;9.23;5.78;;;;;;;12.60;90.22;102321.75;4972685;28;20082;-46
2022/11/05 07:44:30;;;;;;;10.77;6.68;;;;;;;12.56;90.75;102323.97;4972324;28;20027;-46
2022/11/05 07:46:57;;;;;;;13.45;7.95;;;;;;;12.60;91.16;102313.69;4972517;28;20033;-46
2022/11/05 07:49:23;;;;;;;9.82;6.88;;;;;;;12.42;92.06;102305.97;4971611;28;20089;-50
2022/11/05 07:51:49;;;;;;;10.13;7.22;;;;;;;12.63;91.46;102307.94;4972491;28;20062;-47
2022/11/05 07:54:16;;;;;;;10.38;6.85;;;;;;;12.59;91.34;102303.97;4972588;28;20075;-46
2022/11/05 07:56:42;;;;;;;7.15;4.95;;;;;;;12.63;91.34;102307.94;4972556;28;20039;-48
2022/11/05 07:59:08;;;;;;;6.65;5.30;;;;;;;12.65;91.18;102305.91;4972183;28;20054;-46
2022/11/05 08:01:34;;;;;;;8.95;5.50;;;;;;;12.47;92.19;102303.56;4972733;28;20090;-46
2022/11/05 08:04:01;;;;;;;9.82;6.07;;;;;;;12.63;91.84;102324.91;4972577;28;20033;-46
2022/11/05 08:06:27;;;;;;;9.20;6.35;;;;;;;12.66;91.04;102323.72;4972566;28;20038;-47
2022/11/05 08:08:53;;;;;;;11.02;7.25;;;;;;;12.55;91.14;102332.22;4972258;28;20031;-46
2022/11/05 08:11:19;;;;;;;12.13;7.60;;;;;;;12.55;92.05;102318.78;4972215;28;20035;-46
2022/11/05 08:13:45;;;;;;;12.57;7.97;;;;;;;12.54;91.86;102317.94;4972208;28;20093;-49
2022/11/05 08:16:12;;;;;;;13.13;7.82;;;;;;;12.45;92.53;102316.34;4972054;28;20035;-48
2022/11/05 08:18:38;;;;;;;14.10;8.23;;;;;;;12.60;91.90;102319.91;4972484;28;20027;-47
2022/11/05 08:21:05;;;;;;;11.80;7.72;;;;;;;12.60;91.72;102303.78;4971927;28;20034;-48
2022/11/05 08:23:31;;;;;;;10.95;7.70;;;;;;;12.61;92.18;102299.25;4972254;28;20518;-47
2022/11/05 08:25:58;;;;;;;13.85;8.93;;;;;;;12.41;92.59;102288.19;4975971;28;20039;-45
2022/11/05 08:28:25;;;;;;;12.82;8.52;;;;;;;12.57;92.56;102290.72;4975861;28;20026;-48
2022/11/05 08:30:53;;;;;;;12.85;8.32;;;;;;;12.43;93.43;102284.28;4975733;28;20042;-46
2022/11/05 08:33:20;;;;;;;10.23;7.72;;;;;;;12.64;92.44;102272.84;4975792;28;20034;-49
2022/11/05 08:35:47;;;;;;;10.25;6.70;;;;;;;12.62;92.42;102268.69;4975824;28;20063;-45
2022/11/05 08:38:15;;;;;;;6.80;5.20;;;;;;;12.68;91.96;102265.25;4976018;28;20442;-50
2022/11/05 08:40:43;;;;;;;6.28;4.22;;;;;;;12.68;92.01;102263.41;4975558;28;20510;-46
2022/11/05 08:43:11;;;;;;;4.88;3.67;;;;;;;12.81;91.41;102251.16;4974247;28;20372;-45
2022/11/05 08:45:38;;;;;;;6.97;4.45;;;;;;;12.90;90.49;102248.19;4974973;28;20053;-49
2022/11/05 08:48:10;;;;;;;4.05;2.70;;;;;;;12.79;90.40;102240.59;4975118;28;20049;-45
2022/11/05 08:50:38;;;;;;;3.85;2.58;;;;;;;12.81;90.52;102238.56;4975166;28;20026;-47
2022/11/05 08:53:05;;;;;;;4.05;2.67;;;;;;;12.78;90.89;102247.00;4975480;28;20405;-49
2022/11/05 08:55:32;;;;;;;4.10;3.03;;;;;;;12.80;90.68;102249.50;4975024;28;20491;-48
2022/11/05 08:58:00;;;;;;;4.85;3.20;;;;;;;12.89;90.54;102253.75;4974881;28;20487;-47
2022/11/05 09:00:28;;;;;;;4.50;2.85;;;;;;;12.86;89.99;102249.59;4975098;28;20033;-48
2022/11/05 09:02:57;;;;;;;7.18;4.40;;;;;;;12.93;90.32;102263.94;4975188;28;20042;-49
2022/11/05 09:05:23;;;;;;;11.70;6.32;;;;;;;12.89;90.80;102265.34;4975092;28;20110;-46
2022/11/05 09:07:49;;;;;;;13.13;6.55;;;;;;;12.89;90.70;102259.13;4975305;28;20435;-49
2022/11/05 09:10:15;;;;;;;12.93;8.05;;;;;;;13.08;90.13;102261.25;4973462;28;20066;-46
2022/11/05 09:12:42;;;;;;;16.20;8.85;;;;;;;13.16;89.80;102252.25;4975161;28;20035;-46
2022/11/05 09:15:08;;;;;;;19.90;10.32;;;;;;;13.14;89.48;102260.47;4975310;28;20073;-47
2022/11/05 09:17:35;;;;;;;20.75;10.93;;;;;;;13.17;89.81;102259.28;4974898;28;20042;-50
2022/11/05 09:20:03;;;;;;;25.23;14.25;;;;;;;12.97;90.72;102250.97;4974739;28;20034;-47
2022/11/05 09:22:29;;;;;;;30.35;15.00;;;;;;;13.11;90.49;102247.44;4974741;28;20070;-49
2022/11/05 09:24:55;;;;;;;32.22;15.88;;;;;;;13.21;89.99;102231.00;4974224;28;20109;-47
2022/11/05 09:27:22;;;;;;;31.60;15.98;;;;;;;13.21;90.08;102228.31;4974410;28;20037;-49
2022/11/05 09:29:48;;;;;;;30.33;14.85;;;;;;;13.25;90.29;102220.72;4974667;28;20027;-50
2022/11/05 09:32:17;;;;;;;33.03;16.60;;;;;;;13.34;90.09;102233.88;4975040;28;20428;-50
2022/11/05 09:34:44;;;;;;;32.90;17.15;;;;;;;13.42;90.01;102235.59;4974805;28;20026;-53
2022/11/05 09:37:11;;;;;;;36.67;16.65;;;;;;;13.20;90.39;102219.41;4973950;28;20030;-49
2022/11/05 09:39:37;;;;;;;29.48;15.10;;;;;;;13.32;90.82;102225.13;4974466;28;20037;-50
2022/11/05 09:42:11;;;;;;;33.03;15.75;;;;;;;13.29;90.70;102222.84;4974205;28;20518;-48
2022/11/05 09:44:48;;;;;;;31.83;15.95;;;;;;;13.19;91.34;102230.34;4974665;28;20062;-47
2022/11/05 09:47:23;;;;;;;27.95;15.10;;;;;;;13.34;90.95;102223.09;4974206;28;20108;-49
2022/11/05 09:49:51;;;;;;;;;;;;;;;13.47;90.56;102227.78;4974807;28;20038;-48
2022/11/05 09:52:23;;;;;;;20.88;10.55;;;;;;;13.47;90.41;102234.00;4974163;28;20378;-50
2022/11/05 09:54:50;;;;;;;8.52;5.50;;;;;;;13.48;90.35;102241.03;4974431;28;20047;-51
2022/11/05 09:57:27;;;;;;;5.85;4.53;;;;;;;13.32;90.48;102249.34;4974034;28;20479;-46
2022/11/05 10:00:00;;;;;;;4.78;3.40;;;;;;;13.29;89.99;102238.97;4974182;28;20050;-47
2022/11/05 10:02:50;;;;;;;5.60;3.55;;;;;;;13.50;89.59;102245.41;4974276;28;20031;-46
2022/11/05 10:05:18;;;;;;;5.85;3.67;;;;;;;13.52;89.32;102248.75;4973877;28;20038;-47
2022/11/05 10:07:50;;;;;;;7.60;4.57;;;;;;;13.52;89.22;102251.44;4974005;28;20023;-49
2022/11/05 10:10:33;;;;;;;6.88;4.20;;;;;;;13.67;88.87;102252.22;4973861;28;20048;-46
2022/11/05 10:13:24;;;;;;;7.95;5.30;;;;;;;13.52;88.40;102229.91;4973960;28;20298;-47
2022/11/05 10:15:57;;;;;;;9.02;5.57;;;;;;;13.38;89.61;102224.41;4973852;28;20403;-47
2022/11/05 10:18:47;;;;;;;10.65;6.85;;;;;;;13.41;89.70;102207.88;4972653;28;20483;-45
2022/11/05 10:21:18;;;;;;;12.52;6.93;;;;;;;13.27;91.01;102205.22;4973363;28;20035;-47
2022/11/05 10:23:46;;;;;;;12.43;6.93;;;;;;;13.51;90.14;102202.19;4984685;23;20073;-45
2022/11/05 10:26:18;;;;;;;12.57;6.93;;;;;;;13.51;89.67;102187.91;4992796;28;20114;-49
2022/11/05 10:28:45;;;;;;;12.10;7.03;;;;;;;13.51;89.86;102182.53;4993027;28;20112;-47
2022/11/05 10:31:16;;;;;;;14.38;8.00;;;;;;;13.65;89.39;102176.22;4993113;28;20035;-45
2022/11/05 10:33:49;;;;;;;15.10;7.70;;;;;;;13.80;88.10;102166.22;4992442;28;20045;-45
2022/11/05 10:36:18;;;;;;;14.30;8.90;;;;;;;13.78;87.74;102164.75;4992887;28;20109;-46
2022/11/05 10:38:45;;;;;;;17.83;9.30;;;;;;;13.72;88.12;102158.28;4992460;28;20057;-45
2022/11/05 10:41:52;;;;;;;15.27;8.27;;;;;;;13.63;88.85;102167.50;4992196;28;20022;-46
2022/11/05 10:44:40;;;;;;;17.63;8.32;;;;;;;13.66;88.84;102180.59;4987668;28;20041;-46
2022/11/05 10:47:48;;;;;;;15.05;7.57;;;;;;;13.57;89.22;102184.44;4992038;28;20541;-46
2022/11/05 10:50:28;;;;;;;10.65;6.70;;;;;;;13.52;89.10;102179.63;4943967;29;20618;-46
2022/11/05 10:53:14;;;;;;;6.68;4.53;;;;;;;13.47;89.28;102172.13;4932026;29;20036;-48
2022/11/05 10:55:45;;;;;;;6.35;2.78;;;;;;;13.41;89.64;102174.75;4975553;28;20066;-50
2022/11/05 10:58:14;;;;;;;3.35;1.88;;;;;;;13.43;89.85;102160.09;4992364;28;20030;-46
2022/11/05 11:00:59;;;;;;;1.90;1.48;;;;;;;13.58;89.26;102151.94;4992340;28;20525;-51
2022/11/05 11:03:34;;;;;;;1.40;0.93;;;;;;;13.65;88.46;102141.25;4976252;28;20042;-50
2022/11/05 11:06:14;;;;;;;1.85;1.13;;;;;;;13.65;88.31;102138.53;4992371;28;20113;-49
2022/11/05 11:08:44;;;;;;;0.63;0.63;;;;;;;13.60;87.61;102144.53;4992052;28;20431;-49
2022/11/05 11:11:23;;;;;;;1.00;0.50;;;;;;;13.47;88.18;102150.63;4991897;28;20036;-49
2022/11/05 11:14:19;;;;;;;0.82;0.50;;;;;;;13.39;88.24;102163.38;4992302;28;20387;-46
2022/11/05 11:16:50;;;;;;;1.05;0.75;;;;;;;13.27;88.61;102159.50;4987733;28;20042;-46
2022/11/05 11:19:27;;;;;;;1.23;0.73;;;;;;;13.20;89.00;102159.41;4991761;28;20038;-45
2022/11/05 11:22:02;;;;;;;1.27;0.70;;;;;;;13.41;88.07;102151.38;4990636;28;20437;-46
2022/11/05 11:24:29;;;;;;;;;;;;;;;13.38;88.43;102132.09;4991989;28;20047;-45
2022/11/05 11:27:04;;;;;;;1.08;0.60;;;;;;;13.41;88.69;102139.81;4992087;28;20294;-46
2022/11/05 11:29:34;;;;;;;0.95;0.85;;;;;;;13.32;88.88;102144.47;4991998;28;20070;-45
2022/11/05 11:32:01;;;;;;;1.15;0.90;;;;;;;13.25;89.88;102143.56;4991845;28;20045;-48
2022/11/05 11:34:37;;;;;;;1.38;0.93;;;;;;;13.16;90.92;102133.97;4991831;28;20054;-46
2022/11/05 11:37:24;;;;;;;0.77;0.70;;;;;;;13.35;89.93;102129.81;4992186;28;20029;-46
2022/11/05 11:40:15;;;;;;;0.80;0.70;;;;;;;13.20;89.89;102125.28;4991020;28;20054;-46
2022/11/05 11:42:46;;;;;;;1.70;1.00;;;;;;;13.05;91.45;102107.59;4967540;28;20118;-47
2022/11/05 11:45:50;;;;;;;1.70;1.05;;;;;;;12.99;92.33;102101.09;4979202;28;20062;-48
2022/11/05 11:48:21;;;;;;;4.30;3.20;;;;;;;13.08;92.15;102099.94;4909518;29;20036;-47
2022/11/05 11:50:48;;;;;;;7.60;5.00;;;;;;;13.02;92.18;102103.41;4970770;28;20035;-47
2022/11/05 11:53:27;;;;;;;8.45;5.80;;;;;;;12.91;93.06;102087.78;4987747;28;20047;-46
2022/11/05 11:55:58;;;;;;;8.77;6.53;;;;;;;13.06;92.75;102085.06;4991924;28;20137;-47
2022/11/05 11:58:36;;;;;;;12.50;8.75;;;;;;;12.86;92.89;102093.72;4991641;28;20454;-47
2022/11/05 12:01:41;;;;;;;10.75;8.05;;;;;;;13.01;92.30;102084.78;4995716;28;20533;-47
2022/11/05 12:04:33;;;;;;;12.63;8.77;;;;;;;12.99;91.49;102089.50;4995944;28;20537;-49
2022/11/05 12:07:25;;;;;;;12.90;9.18;;;;;;;13.04;91.98;102092.44;4990389;28;20049;-46
2022/11/05 12:10:08;;;;;;;13.63;9.52;;;;;;;13.06;91.75;102083.19;4985546;28;20030;-47
2022/11/05 12:13:08;;;;;;;13.75;8.38;;;;;;;13.09;91.60;102096.22;4981300;28;20261;-47
2022/11/05 12:15:48;;;;;;;16.00;8.13;;;;;;;13.28;90.30;102100.19;4990735;28;20034;-47
2022/11/05 12:18:44;;;;;;;12.00;7.55;;;;;;;13.30;90.47;102102.66;4986302;28;20073;-46
2022/11/05 12:21:19;;;;;;;11.73;6.78;;;;;;;13.18;90.84;102091.56;4973484;28;20407;-46
2022/11/05 12:23:52;;;;;;;12.18;7.82;;;;;;;12.97;92.45;102108.53;4995068;28;20042;-46
2022/11/05 12:26:39;;;;;;;10.27;6.93;;;;;;;13.11;92.19;102106.81;4994980;28;20042;-47